sensor_id;sensor_type;location;lat;lon;timestamp;P1;durP1;ratioP1;P2;durP2;ratioP2
59040;SDS011;44825;53.200;6.448;2023-09-07T00:00:36;11.60;;;3.42;;
59040;SDS011;44825;53.200;6.448;2023-09-07T00:03:02;7.95;;;3.25;;
59040;SDS011;44825;53.200;6.448;2023-09-07T00:05:29;5.45;;;2.95;;
59040;SDS011;44825;53.200;6.448;2023-09-07T00:07:58;6.18;;;3.05;;
59040;SDS011;44825;53.200;6.448;2023-09-07T00:10:25;6.38;;;3.15;;
59040;SDS011;44825;53.200;6.448;2023-09-07T00:12:51;7.63;;;3.47;;
59040;SDS011;44825;53.200;6.448;2023-09-07T00:15:18;6.32;;;3.40;;
59040;SDS011;44825;53.200;6.448;2023-09-07T00:17:45;6.05;;;2.70;;
59040;SDS011;44825;53.200;6.448;2023-09-07T00:20:11;8.00;;;3.03;;
59040;SDS011;44825;53.200;6.448;2023-09-07T00:22:39;5.43;;;3.15;;
59040;SDS011;44825;53.200;6.448;2023-09-07T00:25:05;6.80;;;3.20;;
59040;SDS011;44825;53.200;6.448;2023-09-07T00:27:32;5.82;;;3.38;;
59040;SDS011;44825;53.200;6.448;2023-09-07T00:29:58;7.13;;;3.58;;
59040;SDS011;44825;53.200;6.448;2023-09-07T00:32:24;5.82;;;3.58;;
59040;SDS011;44825;53.200;6.448;2023-09-07T00:34:50;5.72;;;2.83;;
59040;SDS011;44825;53.200;6.448;2023-09-07T00:37:16;6.30;;;3.40;;
59040;SDS011;44825;53.200;6.448;2023-09-07T00:39:42;7.47;;;3.30;;
59040;SDS011;44825;53.200;6.448;2023-09-07T00:42:08;8.50;;;3.53;;
59040;SDS011;44825;53.200;6.448;2023-09-07T00:44:35;6.25;;;3.60;;
59040;SDS011;44825;53.200;6.448;2023-09-07T00:47:01;9.50;;;3.20;;
59040;SDS011;44825;53.200;6.448;2023-09-07T00:49:27;6.78;;;3.45;;
59040;SDS011;44825;53.200;6.448;2023-09-07T00:51:53;5.60;;;3.28;;
59040;SDS011;44825;53.200;6.448;2023-09-07T00:54:19;7.15;;;3.28;;
59040;SDS011;44825;53.200;6.448;2023-09-07T00:56:46;5.43;;;3.05;;
59040;SDS011;44825;53.200;6.448;2023-09-07T00:59:12;6.70;;;3.53;;
59040;SDS011;44825;53.200;6.448;2023-09-07T01:01:38;7.60;;;3.17;;
59040;SDS011;44825;53.200;6.448;2023-09-07T01:04:05;4.90;;;2.95;;
59040;SDS011;44825;53.200;6.448;2023-09-07T01:06:39;9.15;;;3.03;;
59040;SDS011;44825;53.200;6.448;2023-09-07T01:09:06;7.07;;;3.03;;
59040;SDS011;44825;53.200;6.448;2023-09-07T01:11:38;5.50;;;3.25;;
59040;SDS011;44825;53.200;6.448;2023-09-07T01:14:05;5.65;;;3.13;;
59040;SDS011;44825;53.200;6.448;2023-09-07T01:16:31;7.47;;;2.88;;
59040;SDS011;44825;53.200;6.448;2023-09-07T01:19:03;7.70;;;3.30;;
59040;SDS011;44825;53.200;6.448;2023-09-07T01:21:34;6.88;;;2.83;;
59040;SDS011;44825;53.200;6.448;2023-09-07T01:24:00;5.18;;;3.00;;
59040;SDS011;44825;53.200;6.448;2023-09-07T01:26:27;6.38;;;3.45;;
59040;SDS011;44825;53.200;6.448;2023-09-07T01:28:53;6.78;;;3.20;;
59040;SDS011;44825;53.200;6.448;2023-09-07T01:31:19;7.85;;;3.50;;
59040;SDS011;44825;53.200;6.448;2023-09-07T01:33:45;8.35;;;3.53;;
59040;SDS011;44825;53.200;6.448;2023-09-07T01:36:11;5.70;;;3.13;;
59040;SDS011;44825;53.200;6.448;2023-09-07T01:38:37;8.38;;;3.33;;
59040;SDS011;44825;53.200;6.448;2023-09-07T01:41:03;7.15;;;3.42;;
59040;SDS011;44825;53.200;6.448;2023-09-07T01:43:29;7.53;;;3.37;;
59040;SDS011;44825;53.200;6.448;2023-09-07T01:45:55;6.53;;;3.40;;
59040;SDS011;44825;53.200;6.448;2023-09-07T01:48:24;7.05;;;3.10;;
59040;SDS011;44825;53.200;6.448;2023-09-07T01:50:53;5.30;;;3.28;;
59040;SDS011;44825;53.200;6.448;2023-09-07T01:53:19;6.70;;;3.50;;
59040;SDS011;44825;53.200;6.448;2023-09-07T01:55:45;6.15;;;3.90;;
59040;SDS011;44825;53.200;6.448;2023-09-07T01:58:12;6.75;;;3.83;;
59040;SDS011;44825;53.200;6.448;2023-09-07T02:00:38;6.43;;;3.38;;
59040;SDS011;44825;53.200;6.448;2023-09-07T02:03:05;7.07;;;3.50;;
59040;SDS011;44825;53.200;6.448;2023-09-07T02:05:31;8.63;;;4.10;;
59040;SDS011;44825;53.200;6.448;2023-09-07T02:07:58;8.40;;;3.20;;
59040;SDS011;44825;53.200;6.448;2023-09-07T02:10:24;8.80;;;3.30;;
59040;SDS011;44825;53.200;6.448;2023-09-07T02:12:50;7.38;;;3.60;;
59040;SDS011;44825;53.200;6.448;2023-09-07T02:15:16;5.95;;;3.58;;
59040;SDS011;44825;53.200;6.448;2023-09-07T02:17:42;11.75;;;3.95;;
59040;SDS011;44825;53.200;6.448;2023-09-07T02:20:12;6.13;;;3.70;;
59040;SDS011;44825;53.200;6.448;2023-09-07T02:22:38;6.47;;;3.42;;
59040;SDS011;44825;53.200;6.448;2023-09-07T02:25:05;6.10;;;3.47;;
59040;SDS011;44825;53.200;6.448;2023-09-07T02:27:33;7.80;;;3.10;;
59040;SDS011;44825;53.200;6.448;2023-09-07T02:30:00;5.85;;;3.42;;
59040;SDS011;44825;53.200;6.448;2023-09-07T02:32:27;7.13;;;3.90;;
59040;SDS011;44825;53.200;6.448;2023-09-07T02:34:53;6.30;;;3.72;;
59040;SDS011;44825;53.200;6.448;2023-09-07T02:37:19;5.70;;;3.13;;
59040;SDS011;44825;53.200;6.448;2023-09-07T02:39:45;7.45;;;3.15;;
59040;SDS011;44825;53.200;6.448;2023-09-07T02:42:11;7.47;;;3.70;;
59040;SDS011;44825;53.200;6.448;2023-09-07T02:44:37;8.25;;;3.92;;
59040;SDS011;44825;53.200;6.448;2023-09-07T02:47:04;12.10;;;3.85;;
59040;SDS011;44825;53.200;6.448;2023-09-07T02:49:30;9.15;;;4.40;;
59040;SDS011;44825;53.200;6.448;2023-09-07T02:51:56;8.05;;;3.97;;
59040;SDS011;44825;53.200;6.448;2023-09-07T02:54:22;10.38;;;3.90;;
59040;SDS011;44825;53.200;6.448;2023-09-07T02:56:49;6.38;;;3.38;;
59040;SDS011;44825;53.200;6.448;2023-09-07T02:59:15;8.55;;;4.10;;
59040;SDS011;44825;53.200;6.448;2023-09-07T03:01:41;7.60;;;3.50;;
59040;SDS011;44825;53.200;6.448;2023-09-07T03:04:07;6.78;;;3.45;;
59040;SDS011;44825;53.200;6.448;2023-09-07T03:06:33;10.77;;;4.22;;
59040;SDS011;44825;53.200;6.448;2023-09-07T03:08:59;8.80;;;4.28;;
59040;SDS011;44825;53.200;6.448;2023-09-07T03:11:25;13.23;;;4.25;;
59040;SDS011;44825;53.200;6.448;2023-09-07T03:13:51;9.23;;;4.20;;
59040;SDS011;44825;53.200;6.448;2023-09-07T03:16:17;9.07;;;3.90;;
59040;SDS011;44825;53.200;6.448;2023-09-07T03:18:43;10.20;;;4.25;;
59040;SDS011;44825;53.200;6.448;2023-09-07T03:21:09;7.00;;;4.35;;
59040;SDS011;44825;53.200;6.448;2023-09-07T03:23:35;7.70;;;4.82;;
59040;SDS011;44825;53.200;6.448;2023-09-07T03:26:02;7.03;;;4.10;;
59040;SDS011;44825;53.200;6.448;2023-09-07T03:28:28;9.43;;;4.25;;
59040;SDS011;44825;53.200;6.448;2023-09-07T03:30:54;9.77;;;4.00;;
59040;SDS011;44825;53.200;6.448;2023-09-07T03:33:21;7.65;;;4.47;;
59040;SDS011;44825;53.200;6.448;2023-09-07T03:35:47;10.57;;;4.63;;
59040;SDS011;44825;53.200;6.448;2023-09-07T03:38:13;7.75;;;4.07;;
59040;SDS011;44825;53.200;6.448;2023-09-07T03:40:39;7.97;;;4.35;;
59040;SDS011;44825;53.200;6.448;2023-09-07T03:43:05;8.07;;;4.30;;
59040;SDS011;44825;53.200;6.448;2023-09-07T03:45:31;9.30;;;4.30;;
59040;SDS011;44825;53.200;6.448;2023-09-07T03:47:57;8.48;;;4.55;;
59040;SDS011;44825;53.200;6.448;2023-09-07T03:50:24;6.80;;;4.30;;
59040;SDS011;44825;53.200;6.448;2023-09-07T03:52:50;7.90;;;4.10;;
59040;SDS011;44825;53.200;6.448;2023-09-07T03:55:16;8.85;;;4.80;;
59040;SDS011;44825;53.200;6.448;2023-09-07T03:57:42;7.28;;;3.88;;
59040;SDS011;44825;53.200;6.448;2023-09-07T04:00:08;8.25;;;4.28;;
59040;SDS011;44825;53.200;6.448;2023-09-07T04:02:34;9.10;;;4.47;;
59040;SDS011;44825;53.200;6.448;2023-09-07T04:05:00;9.60;;;4.88;;
59040;SDS011;44825;53.200;6.448;2023-09-07T04:07:29;8.30;;;4.40;;
59040;SDS011;44825;53.200;6.448;2023-09-07T04:09:56;5.82;;;4.10;;
59040;SDS011;44825;53.200;6.448;2023-09-07T04:12:22;10.93;;;4.68;;
59040;SDS011;44825;53.200;6.448;2023-09-07T04:14:48;7.80;;;4.07;;
59040;SDS011;44825;53.200;6.448;2023-09-07T04:17:14;6.72;;;4.07;;
59040;SDS011;44825;53.200;6.448;2023-09-07T04:19:40;6.22;;;4.20;;
59040;SDS011;44825;53.200;6.448;2023-09-07T04:22:06;8.57;;;4.85;;
59040;SDS011;44825;53.200;6.448;2023-09-07T04:24:32;6.68;;;3.95;;
59040;SDS011;44825;53.200;6.448;2023-09-07T04:27:00;7.65;;;4.40;;
59040;SDS011;44825;53.200;6.448;2023-09-07T04:29:27;7.47;;;4.30;;
59040;SDS011;44825;53.200;6.448;2023-09-07T04:31:54;11.35;;;4.45;;
59040;SDS011;44825;53.200;6.448;2023-09-07T04:34:20;7.30;;;4.82;;
59040;SDS011;44825;53.200;6.448;2023-09-07T04:36:46;7.80;;;4.47;;
59040;SDS011;44825;53.200;6.448;2023-09-07T04:39:13;6.20;;;4.30;;
59040;SDS011;44825;53.200;6.448;2023-09-07T04:41:42;7.22;;;4.57;;
59040;SDS011;44825;53.200;6.448;2023-09-07T04:44:08;9.30;;;4.95;;
59040;SDS011;44825;53.200;6.448;2023-09-07T04:46:34;9.20;;;4.75;;
59040;SDS011;44825;53.200;6.448;2023-09-07T04:49:00;8.85;;;4.90;;
59040;SDS011;44825;53.200;6.448;2023-09-07T04:51:26;8.88;;;4.75;;
59040;SDS011;44825;53.200;6.448;2023-09-07T04:53:52;10.23;;;4.85;;
59040;SDS011;44825;53.200;6.448;2023-09-07T04:56:18;8.27;;;4.18;;
59040;SDS011;44825;53.200;6.448;2023-09-07T04:58:46;8.27;;;4.93;;
59040;SDS011;44825;53.200;6.448;2023-09-07T05:01:12;9.35;;;4.53;;
59040;SDS011;44825;53.200;6.448;2023-09-07T05:03:42;7.80;;;4.72;;
59040;SDS011;44825;53.200;6.448;2023-09-07T05:06:08;10.68;;;5.07;;
59040;SDS011;44825;53.200;6.448;2023-09-07T05:08:34;7.80;;;5.45;;
59040;SDS011;44825;53.200;6.448;2023-09-07T05:11:03;10.48;;;5.30;;
59040;SDS011;44825;53.200;6.448;2023-09-07T05:13:29;8.35;;;4.45;;
59040;SDS011;44825;53.200;6.448;2023-09-07T05:15:56;8.55;;;5.57;;
59040;SDS011;44825;53.200;6.448;2023-09-07T05:18:25;11.07;;;5.07;;
59040;SDS011;44825;53.200;6.448;2023-09-07T05:20:52;8.80;;;4.95;;
59040;SDS011;44825;53.200;6.448;2023-09-07T05:23:18;9.98;;;4.78;;
59040;SDS011;44825;53.200;6.448;2023-09-07T05:25:44;8.02;;;5.45;;
59040;SDS011;44825;53.200;6.448;2023-09-07T05:28:12;11.85;;;6.07;;
59040;SDS011;44825;53.200;6.448;2023-09-07T05:30:38;8.13;;;5.22;;
59040;SDS011;44825;53.200;6.448;2023-09-07T05:33:04;7.93;;;4.80;;
59040;SDS011;44825;53.200;6.448;2023-09-07T05:35:30;9.77;;;4.90;;
59040;SDS011;44825;53.200;6.448;2023-09-07T05:37:57;12.40;;;5.72;;
59040;SDS011;44825;53.200;6.448;2023-09-07T05:40:24;9.00;;;4.57;;
59040;SDS011;44825;53.200;6.448;2023-09-07T05:42:50;9.48;;;5.03;;
59040;SDS011;44825;53.200;6.448;2023-09-07T05:45:16;8.43;;;5.00;;
59040;SDS011;44825;53.200;6.448;2023-09-07T05:47:42;6.47;;;4.68;;
59040;SDS011;44825;53.200;6.448;2023-09-07T05:50:08;8.45;;;5.47;;
59040;SDS011;44825;53.200;6.448;2023-09-07T05:52:34;10.88;;;4.78;;
59040;SDS011;44825;53.200;6.448;2023-09-07T05:55:00;9.88;;;5.70;;
59040;SDS011;44825;53.200;6.448;2023-09-07T05:57:29;6.57;;;4.63;;
59040;SDS011;44825;53.200;6.448;2023-09-07T05:59:55;8.90;;;5.50;;
59040;SDS011;44825;53.200;6.448;2023-09-07T06:02:21;7.18;;;4.85;;
59040;SDS011;44825;53.200;6.448;2023-09-07T06:04:47;12.57;;;5.25;;
59040;SDS011;44825;53.200;6.448;2023-09-07T06:07:13;7.63;;;5.35;;
59040;SDS011;44825;53.200;6.448;2023-09-07T06:09:39;8.07;;;5.60;;
59040;SDS011;44825;53.200;6.448;2023-09-07T06:12:05;12.00;;;5.30;;
59040;SDS011;44825;53.200;6.448;2023-09-07T06:14:31;9.73;;;5.00;;
59040;SDS011;44825;53.200;6.448;2023-09-07T06:16:57;8.10;;;4.78;;
59040;SDS011;44825;53.200;6.448;2023-09-07T06:19:23;8.70;;;5.38;;
59040;SDS011;44825;53.200;6.448;2023-09-07T06:21:49;7.72;;;5.10;;
59040;SDS011;44825;53.200;6.448;2023-09-07T06:24:16;10.93;;;5.70;;
59040;SDS011;44825;53.200;6.448;2023-09-07T06:26:42;8.15;;;4.88;;
59040;SDS011;44825;53.200;6.448;2023-09-07T06:29:09;9.48;;;4.80;;
59040;SDS011;44825;53.200;6.448;2023-09-07T06:31:35;7.50;;;4.85;;
59040;SDS011;44825;53.200;6.448;2023-09-07T06:34:01;8.63;;;5.63;;
59040;SDS011;44825;53.200;6.448;2023-09-07T06:36:29;14.57;;;6.00;;
59040;SDS011;44825;53.200;6.448;2023-09-07T06:38:56;9.98;;;5.53;;
59040;SDS011;44825;53.200;6.448;2023-09-07T06:41:22;10.05;;;5.30;;
59040;SDS011;44825;53.200;6.448;2023-09-07T06:43:48;8.13;;;4.90;;
59040;SDS011;44825;53.200;6.448;2023-09-07T06:46:14;9.50;;;4.88;;
59040;SDS011;44825;53.200;6.448;2023-09-07T06:48:40;8.23;;;5.00;;
59040;SDS011;44825;53.200;6.448;2023-09-07T06:51:06;8.63;;;5.20;;
59040;SDS011;44825;53.200;6.448;2023-09-07T06:53:34;9.45;;;4.88;;
59040;SDS011;44825;53.200;6.448;2023-09-07T06:56:00;11.57;;;4.78;;
59040;SDS011;44825;53.200;6.448;2023-09-07T06:58:27;7.15;;;4.57;;
59040;SDS011;44825;53.200;6.448;2023-09-07T07:00:57;8.82;;;4.80;;
59040;SDS011;44825;53.200;6.448;2023-09-07T07:03:26;9.40;;;5.07;;
59040;SDS011;44825;53.200;6.448;2023-09-07T07:05:52;8.90;;;4.97;;
59040;SDS011;44825;53.200;6.448;2023-09-07T07:08:18;9.43;;;4.80;;
59040;SDS011;44825;53.200;6.448;2023-09-07T07:10:44;7.93;;;4.47;;
59040;SDS011;44825;53.200;6.448;2023-09-07T07:13:10;9.65;;;5.45;;
59040;SDS011;44825;53.200;6.448;2023-09-07T07:15:36;10.18;;;4.63;;
59040;SDS011;44825;53.200;6.448;2023-09-07T07:18:03;8.15;;;4.80;;
59040;SDS011;44825;53.200;6.448;2023-09-07T07:20:33;8.85;;;4.55;;
59040;SDS011;44825;53.200;6.448;2023-09-07T07:22:59;8.32;;;4.45;;
59040;SDS011;44825;53.200;6.448;2023-09-07T07:25:25;8.60;;;4.63;;
59040;SDS011;44825;53.200;6.448;2023-09-07T07:27:51;6.80;;;4.47;;
59040;SDS011;44825;53.200;6.448;2023-09-07T07:30:17;8.10;;;4.40;;
59040;SDS011;44825;53.200;6.448;2023-09-07T07:32:44;9.55;;;4.70;;
59040;SDS011;44825;53.200;6.448;2023-09-07T07:35:10;9.05;;;4.60;;
59040;SDS011;44825;53.200;6.448;2023-09-07T07:37:36;8.55;;;4.43;;
59040;SDS011;44825;53.200;6.448;2023-09-07T07:40:02;10.38;;;4.40;;
59040;SDS011;44825;53.200;6.448;2023-09-07T07:42:29;6.45;;;4.13;;
59040;SDS011;44825;53.200;6.448;2023-09-07T07:44:55;6.55;;;3.75;;
59040;SDS011;44825;53.200;6.448;2023-09-07T07:47:21;9.30;;;4.55;;
59040;SDS011;44825;53.200;6.448;2023-09-07T07:49:47;8.60;;;4.20;;
59040;SDS011;44825;53.200;6.448;2023-09-07T07:52:13;7.00;;;3.90;;
59040;SDS011;44825;53.200;6.448;2023-09-07T07:54:39;8.90;;;4.40;;
59040;SDS011;44825;53.200;6.448;2023-09-07T07:57:05;6.57;;;4.03;;
59040;SDS011;44825;53.200;6.448;2023-09-07T07:59:33;7.53;;;4.13;;
59040;SDS011;44825;53.200;6.448;2023-09-07T08:02:00;10.20;;;4.13;;
59040;SDS011;44825;53.200;6.448;2023-09-07T08:04:26;10.02;;;5.07;;
59040;SDS011;44825;53.200;6.448;2023-09-07T08:06:52;8.02;;;3.95;;
59040;SDS011;44825;53.200;6.448;2023-09-07T08:09:23;9.57;;;4.47;;
59040;SDS011;44825;53.200;6.448;2023-09-07T08:11:49;9.98;;;4.43;;
59040;SDS011;44825;53.200;6.448;2023-09-07T08:14:16;8.68;;;4.30;;
59040;SDS011;44825;53.200;6.448;2023-09-07T08:16:42;8.30;;;4.32;;
59040;SDS011;44825;53.200;6.448;2023-09-07T08:19:08;7.07;;;4.35;;
59040;SDS011;44825;53.200;6.448;2023-09-07T08:21:34;9.80;;;4.57;;
59040;SDS011;44825;53.200;6.448;2023-09-07T08:24:02;7.88;;;5.03;;
59040;SDS011;44825;53.200;6.448;2023-09-07T08:26:29;7.75;;;5.20;;
59040;SDS011;44825;53.200;6.448;2023-09-07T08:28:55;7.95;;;4.97;;
59040;SDS011;44825;53.200;6.448;2023-09-07T08:31:21;8.65;;;4.70;;
59040;SDS011;44825;53.200;6.448;2023-09-07T08:33:50;7.03;;;4.57;;
59040;SDS011;44825;53.200;6.448;2023-09-07T08:36:16;11.38;;;4.93;;
59040;SDS011;44825;53.200;6.448;2023-09-07T08:38:43;10.10;;;4.90;;
59040;SDS011;44825;53.200;6.448;2023-09-07T08:41:09;8.82;;;4.88;;
59040;SDS011;44825;53.200;6.448;2023-09-07T08:43:35;8.77;;;4.50;;
59040;SDS011;44825;53.200;6.448;2023-09-07T08:46:13;8.00;;;4.55;;
59040;SDS011;44825;53.200;6.448;2023-09-07T08:48:40;7.35;;;4.40;;
59040;SDS011;44825;53.200;6.448;2023-09-07T08:51:07;11.15;;;4.88;;
59040;SDS011;44825;53.200;6.448;2023-09-07T08:53:37;7.55;;;4.18;;
59040;SDS011;44825;53.200;6.448;2023-09-07T08:56:03;9.40;;;4.53;;
59040;SDS011;44825;53.200;6.448;2023-09-07T08:58:30;7.85;;;4.80;;
59040;SDS011;44825;53.200;6.448;2023-09-07T09:00:57;7.10;;;4.82;;
59040;SDS011;44825;53.200;6.448;2023-09-07T09:03:23;9.45;;;4.60;;
59040;SDS011;44825;53.200;6.448;2023-09-07T09:05:50;8.65;;;4.50;;
59040;SDS011;44825;53.200;6.448;2023-09-07T09:08:17;7.35;;;4.13;;
59040;SDS011;44825;53.200;6.448;2023-09-07T09:10:45;8.52;;;3.85;;
59040;SDS011;44825;53.200;6.448;2023-09-07T09:13:11;15.65;;;4.30;;
59040;SDS011;44825;53.200;6.448;2023-09-07T09:15:38;7.72;;;3.92;;
59040;SDS011;44825;53.200;6.448;2023-09-07T09:18:11;7.45;;;3.75;;
59040;SDS011;44825;53.200;6.448;2023-09-07T09:23:04;9.40;;;4.13;;
59040;SDS011;44825;53.200;6.448;2023-09-07T09:25:32;8.43;;;4.20;;
59040;SDS011;44825;53.200;6.448;2023-09-07T09:27:58;7.65;;;3.65;;
59040;SDS011;44825;53.200;6.448;2023-09-07T09:30:24;7.30;;;3.88;;
59040;SDS011;44825;53.200;6.448;2023-09-07T09:32:50;8.20;;;3.85;;
59040;SDS011;44825;53.200;6.448;2023-09-07T09:35:17;8.52;;;4.28;;
59040;SDS011;44825;53.200;6.448;2023-09-07T09:37:47;9.90;;;3.78;;
59040;SDS011;44825;53.200;6.448;2023-09-07T09:40:16;8.20;;;3.75;;
59040;SDS011;44825;53.200;6.448;2023-09-07T09:42:42;9.35;;;3.33;;
59040;SDS011;44825;53.200;6.448;2023-09-07T09:45:09;8.57;;;3.63;;
59040;SDS011;44825;53.200;6.448;2023-09-07T09:47:39;10.60;;;3.70;;
59040;SDS011;44825;53.200;6.448;2023-09-07T09:50:06;7.22;;;3.92;;
59040;SDS011;44825;53.200;6.448;2023-09-07T09:52:33;6.22;;;3.58;;
59040;SDS011;44825;53.200;6.448;2023-09-07T09:55:01;7.35;;;4.05;;
59040;SDS011;44825;53.200;6.448;2023-09-07T09:57:27;7.07;;;3.67;;
59040;SDS011;44825;53.200;6.448;2023-09-07T09:59:54;8.32;;;3.90;;
59040;SDS011;44825;53.200;6.448;2023-09-07T10:02:20;14.32;;;3.92;;
59040;SDS011;44825;53.200;6.448;2023-09-07T10:04:47;6.82;;;3.80;;
59040;SDS011;44825;53.200;6.448;2023-09-07T10:07:13;5.82;;;3.60;;
59040;SDS011;44825;53.200;6.448;2023-09-07T10:09:39;7.95;;;4.22;;
59040;SDS011;44825;53.200;6.448;2023-09-07T10:12:10;9.10;;;3.92;;
59040;SDS011;44825;53.200;6.448;2023-09-07T10:14:40;7.45;;;4.05;;
59040;SDS011;44825;53.200;6.448;2023-09-07T10:17:08;7.07;;;4.20;;
59040;SDS011;44825;53.200;6.448;2023-09-07T10:19:37;8.88;;;5.00;;
59040;SDS011;44825;53.200;6.448;2023-09-07T10:22:09;5.63;;;3.50;;
59040;SDS011;44825;53.200;6.448;2023-09-07T10:24:56;8.30;;;4.15;;
59040;SDS011;44825;53.200;6.448;2023-09-07T10:27:22;8.13;;;4.82;;
59040;SDS011;44825;53.200;6.448;2023-09-07T10:29:51;7.43;;;3.97;;
59040;SDS011;44825;53.200;6.448;2023-09-07T10:32:17;8.43;;;3.60;;
59040;SDS011;44825;53.200;6.448;2023-09-07T10:34:43;8.93;;;4.22;;
59040;SDS011;44825;53.200;6.448;2023-09-07T10:37:10;6.57;;;4.03;;
59040;SDS011;44825;53.200;6.448;2023-09-07T10:39:38;9.93;;;4.18;;
59040;SDS011;44825;53.200;6.448;2023-09-07T10:42:05;7.13;;;3.90;;
59040;SDS011;44825;53.200;6.448;2023-09-07T10:44:31;7.75;;;4.13;;
59040;SDS011;44825;53.200;6.448;2023-09-07T10:46:57;7.32;;;4.35;;
59040;SDS011;44825;53.200;6.448;2023-09-07T10:49:23;7.55;;;3.78;;
59040;SDS011;44825;53.200;6.448;2023-09-07T10:51:52;8.35;;;4.03;;
59040;SDS011;44825;53.200;6.448;2023-09-07T10:54:22;6.78;;;3.53;;
59040;SDS011;44825;53.200;6.448;2023-09-07T10:56:49;8.98;;;3.90;;
59040;SDS011;44825;53.200;6.448;2023-09-07T10:59:16;7.22;;;3.97;;
59040;SDS011;44825;53.200;6.448;2023-09-07T11:01:45;9.27;;;4.55;;
59040;SDS011;44825;53.200;6.448;2023-09-07T11:04:13;6.88;;;4.13;;
59040;SDS011;44825;53.200;6.448;2023-09-07T11:06:40;7.57;;;3.70;;
59040;SDS011;44825;53.200;6.448;2023-09-07T11:09:08;7.00;;;3.75;;
59040;SDS011;44825;53.200;6.448;2023-09-07T11:11:38;9.10;;;4.40;;
59040;SDS011;44825;53.200;6.448;2023-09-07T11:14:06;8.52;;;4.28;;
59040;SDS011;44825;53.200;6.448;2023-09-07T11:16:33;9.93;;;3.95;;
59040;SDS011;44825;53.200;6.448;2023-09-07T11:19:06;9.35;;;3.83;;
59040;SDS011;44825;53.200;6.448;2023-09-07T11:21:36;8.23;;;3.92;;
59040;SDS011;44825;53.200;6.448;2023-09-07T11:24:02;7.82;;;3.95;;
59040;SDS011;44825;53.200;6.448;2023-09-07T11:26:44;7.57;;;3.55;;
59040;SDS011;44825;53.200;6.448;2023-09-07T11:29:14;6.20;;;3.80;;
59040;SDS011;44825;53.200;6.448;2023-09-07T11:31:41;7.25;;;3.58;;
59040;SDS011;44825;53.200;6.448;2023-09-07T11:34:10;7.68;;;3.30;;
59040;SDS011;44825;53.200;6.448;2023-09-07T11:36:37;9.85;;;3.85;;
59040;SDS011;44825;53.200;6.448;2023-09-07T11:39:03;7.47;;;3.50;;
59040;SDS011;44825;53.200;6.448;2023-09-07T11:41:41;8.23;;;3.50;;
59040;SDS011;44825;53.200;6.448;2023-09-07T11:44:07;6.47;;;3.20;;
59040;SDS011;44825;53.200;6.448;2023-09-07T11:46:34;5.50;;;3.08;;
59040;SDS011;44825;53.200;6.448;2023-09-07T11:49:00;7.97;;;3.28;;
59040;SDS011;44825;53.200;6.448;2023-09-07T11:51:26;8.45;;;3.08;;
59040;SDS011;44825;53.200;6.448;2023-09-07T11:53:52;7.57;;;3.35;;
59040;SDS011;44825;53.200;6.448;2023-09-07T11:56:18;8.35;;;3.50;;
59040;SDS011;44825;53.200;6.448;2023-09-07T11:58:44;6.10;;;3.70;;
59040;SDS011;44825;53.200;6.448;2023-09-07T12:01:10;8.32;;;3.45;;
59040;SDS011;44825;53.200;6.448;2023-09-07T12:03:36;8.25;;;3.33;;
59040;SDS011;44825;53.200;6.448;2023-09-07T12:06:02;7.32;;;3.30;;
59040;SDS011;44825;53.200;6.448;2023-09-07T12:08:29;7.18;;;3.70;;
59040;SDS011;44825;53.200;6.448;2023-09-07T12:10:55;7.00;;;3.05;;
59040;SDS011;44825;53.200;6.448;2023-09-07T12:13:21;10.27;;;3.60;;
59040;SDS011;44825;53.200;6.448;2023-09-07T12:15:47;8.25;;;2.90;;
59040;SDS011;44825;53.200;6.448;2023-09-07T12:18:13;9.23;;;3.17;;
59040;SDS011;44825;53.200;6.448;2023-09-07T12:20:39;7.72;;;2.92;;
59040;SDS011;44825;53.200;6.448;2023-09-07T12:23:05;6.80;;;3.60;;
59040;SDS011;44825;53.200;6.448;2023-09-07T12:25:31;6.88;;;3.17;;
59040;SDS011;44825;53.200;6.448;2023-09-07T12:27:57;6.57;;;3.10;;
59040;SDS011;44825;53.200;6.448;2023-09-07T12:30:23;6.80;;;3.53;;
59040;SDS011;44825;53.200;6.448;2023-09-07T12:32:50;7.55;;;2.67;;
59040;SDS011;44825;53.200;6.448;2023-09-07T12:35:16;6.75;;;2.72;;
59040;SDS011;44825;53.200;6.448;2023-09-07T12:37:42;7.63;;;3.30;;
59040;SDS011;44825;53.200;6.448;2023-09-07T12:40:09;6.57;;;3.00;;
59040;SDS011;44825;53.200;6.448;2023-09-07T12:42:39;5.65;;;2.85;;
59040;SDS011;44825;53.200;6.448;2023-09-07T12:45:06;6.95;;;3.47;;
59040;SDS011;44825;53.200;6.448;2023-09-07T12:47:32;5.20;;;3.10;;
59040;SDS011;44825;53.200;6.448;2023-09-07T12:49:58;7.75;;;3.15;;
59040;SDS011;44825;53.200;6.448;2023-09-07T12:52:24;6.75;;;3.10;;
59040;SDS011;44825;53.200;6.448;2023-09-07T12:54:50;8.63;;;3.35;;
59040;SDS011;44825;53.200;6.448;2023-09-07T12:57:16;5.07;;;2.55;;
59040;SDS011;44825;53.200;6.448;2023-09-07T12:59:42;5.82;;;3.47;;
59040;SDS011;44825;53.200;6.448;2023-09-07T13:02:09;5.90;;;3.28;;
59040;SDS011;44825;53.200;6.448;2023-09-07T13:04:35;7.28;;;3.42;;
59040;SDS011;44825;53.200;6.448;2023-09-07T13:07:01;6.28;;;3.25;;
59040;SDS011;44825;53.200;6.448;2023-09-07T13:09:27;8.13;;;3.58;;
59040;SDS011;44825;53.200;6.448;2023-09-07T13:11:53;6.25;;;3.33;;
59040;SDS011;44825;53.200;6.448;2023-09-07T13:14:19;5.93;;;3.30;;
59040;SDS011;44825;53.200;6.448;2023-09-07T13:16:45;7.57;;;3.20;;
59040;SDS011;44825;53.200;6.448;2023-09-07T13:19:11;7.28;;;3.55;;
59040;SDS011;44825;53.200;6.448;2023-09-07T13:21:37;7.60;;;3.75;;
59040;SDS011;44825;53.200;6.448;2023-09-07T13:24:03;6.85;;;3.88;;
59040;SDS011;44825;53.200;6.448;2023-09-07T13:26:30;7.40;;;3.28;;
59040;SDS011;44825;53.200;6.448;2023-09-07T13:28:56;7.75;;;3.63;;
59040;SDS011;44825;53.200;6.448;2023-09-07T13:31:22;8.40;;;4.28;;
59040;SDS011;44825;53.200;6.448;2023-09-07T13:33:48;7.75;;;3.75;;
59040;SDS011;44825;53.200;6.448;2023-09-07T13:36:15;7.72;;;3.58;;
59040;SDS011;44825;53.200;6.448;2023-09-07T13:38:42;5.18;;;2.85;;
59040;SDS011;44825;53.200;6.448;2023-09-07T13:41:08;5.72;;;3.15;;
59040;SDS011;44825;53.200;6.448;2023-09-07T13:43:34;6.85;;;3.20;;
59040;SDS011;44825;53.200;6.448;2023-09-07T13:46:01;9.80;;;4.38;;
59040;SDS011;44825;53.200;6.448;2023-09-07T13:48:27;8.07;;;3.55;;
59040;SDS011;44825;53.200;6.448;2023-09-07T13:50:55;9.57;;;3.60;;
59040;SDS011;44825;53.200;6.448;2023-09-07T13:53:21;11.32;;;3.55;;
59040;SDS011;44825;53.200;6.448;2023-09-07T13:55:47;6.63;;;3.53;;
59040;SDS011;44825;53.200;6.448;2023-09-07T13:58:14;8.95;;;3.60;;
59040;SDS011;44825;53.200;6.448;2023-09-07T14:00:40;9.23;;;3.40;;
59040;SDS011;44825;53.200;6.448;2023-09-07T14:03:06;8.23;;;3.40;;
59040;SDS011;44825;53.200;6.448;2023-09-07T14:05:32;8.20;;;3.53;;
59040;SDS011;44825;53.200;6.448;2023-09-07T14:07:58;5.97;;;3.58;;
59040;SDS011;44825;53.200;6.448;2023-09-07T14:10:24;10.25;;;3.67;;
59040;SDS011;44825;53.200;6.448;2023-09-07T14:12:50;6.53;;;3.53;;
59040;SDS011;44825;53.200;6.448;2023-09-07T14:15:16;8.00;;;4.07;;
59040;SDS011;44825;53.200;6.448;2023-09-07T14:17:42;12.10;;;3.40;;
59040;SDS011;44825;53.200;6.448;2023-09-07T14:20:08;8.48;;;3.42;;
59040;SDS011;44825;53.200;6.448;2023-09-07T14:22:34;6.18;;;2.90;;
59040;SDS011;44825;53.200;6.448;2023-09-07T14:25:00;7.68;;;3.47;;
59040;SDS011;44825;53.200;6.448;2023-09-07T14:27:27;6.10;;;3.35;;
59040;SDS011;44825;53.200;6.448;2023-09-07T14:29:53;11.55;;;3.72;;
59040;SDS011;44825;53.200;6.448;2023-09-07T14:32:19;8.05;;;3.63;;
59040;SDS011;44825;53.200;6.448;2023-09-07T14:34:45;7.07;;;3.97;;
59040;SDS011;44825;53.200;6.448;2023-09-07T14:37:14;6.85;;;4.15;;
59040;SDS011;44825;53.200;6.448;2023-09-07T14:39:41;7.88;;;3.55;;
59040;SDS011;44825;53.200;6.448;2023-09-07T14:42:12;8.43;;;3.30;;
59040;SDS011;44825;53.200;6.448;2023-09-07T14:44:41;7.68;;;3.70;;